Time;durP1;ratioP1;P1;durP2;ratioP2;P2;SDS_P1;SDS_P2;PMS_P1;PMS_P2;Temp;Humidity;BMP_temperature;BMP_pressure;BME280_temperature;BME280_humidity;BME280_pressure;Samples;Min_cycle;Max_cycle;Signal;HPM_P1;HPM_P2
2023/01/04 00:00:11;;;;;;;8.70;2.67;;;8.50;83.00;;;;;;5008627;28;20130;-79
2023/01/04 00:02:38;;;;;;;9.00;2.15;;;8.60;83.00;;;;;;5015255;28;20262;-78
2023/01/04 00:05:06;;;;;;;6.25;2.33;;;8.60;82.90;;;;;;5017206;28;20050;-78
2023/01/04 00:07:33;;;;;;;7.28;1.77;;;8.60;82.80;;;;;;4961963;28;20070;-78
2023/01/04 00:10:00;;;;;;;8.38;2.13;;;8.60;82.60;;;;;;4930962;28;20053;-78
2023/01/04 00:12:27;;;;;;;6.63;2.33;;;8.60;82.60;;;;;;4974219;28;22764;-79
2023/01/04 00:14:55;;;;;;;6.65;2.25;;;8.60;82.70;;;;;;4981959;28;20283;-79
2023/01/04 00:17:22;;;;;;;9.82;2.35;;;8.60;82.60;;;;;;5034098;28;20053;-78
2023/01/04 00:19:50;;;;;;;8.35;2.50;;;8.60;82.60;;;;;;5027397;28;20165;-78
2023/01/04 00:22:17;;;;;;;6.53;2.50;;;8.60;82.70;;;;;;5026400;28;20069;-79
2023/01/04 00:24:44;;;;;;;6.53;1.80;;;8.60;82.50;;;;;;5029417;28;20050;-78
2023/01/04 00:27:11;;;;;;;7.68;1.92;;;8.60;82.50;;;;;;5018058;28;20768;-77
2023/01/04 00:29:38;;;;;;;6.75;2.20;;;8.60;82.60;;;;;;5015956;28;20050;-77
2023/01/04 00:32:06;;;;;;;8.02;2.60;;;8.60;82.80;;;;;;5039455;28;20062;-76
2023/01/04 00:34:33;;;;;;;5.57;1.92;;;8.60;83.00;;;;;;5036814;28;20081;-79
2023/01/04 00:37:00;;;;;;;8.17;2.30;;;8.60;83.10;;;;;;5036013;28;20655;-78
2023/01/04 00:39:28;;;;;;;6.97;2.13;;;8.60;83.30;;;;;;5037744;28;20272;-77
2023/01/04 00:42:03;;;;;;;8.60;2.15;;;8.60;83.60;;;;;;5039131;28;20045;-78
2023/01/04 00:44:32;;;;;;;7.35;2.05;;;8.60;83.80;;;;;;5010689;28;20900;-77
2023/01/04 00:47:00;;;;;;;6.15;1.50;;;8.60;84.00;;;;;;5027580;28;20073;-77
2023/01/04 00:49:30;;;;;;;7.63;1.80;;;8.60;84.20;;;;;;5025885;28;21026;-78
2023/01/04 00:51:57;;;;;;;7.72;2.58;;;8.60;84.30;;;;;;5021955;28;20384;-77
2023/01/04 00:54:25;;;;;;;7.47;2.28;;;8.60;84.60;;;;;;5036732;28;20145;-77
2023/01/04 00:56:52;;;;;;;9.18;2.20;;;8.60;84.70;;;;;;5035767;28;20056;-77
2023/01/04 00:59:20;;;;;;;7.05;2.25;;;8.50;84.90;;;;;;5038987;28;20058;-77
2023/01/04 01:01:48;;;;;;;6.70;1.77;;;8.50;85.10;;;;;;5017342;28;20136;-78
2023/01/04 01:04:18;;;;;;;8.57;2.35;;;8.50;85.00;;;;;;5029495;28;20376;-77
2023/01/04 01:06:46;;;;;;;10.20;2.58;;;8.50;85.30;;;;;;5028929;28;20096;-77
2023/01/04 01:09:14;;;;;;;6.22;2.08;;;8.50;85.40;;;;;;5026468;28;20508;-77
2023/01/04 01:11:41;;;;;;;5.65;1.77;;;8.60;85.50;;;;;;5026480;28;20045;-78
2023/01/04 01:14:12;;;;;;;6.73;2.30;;;8.50;85.50;;;;;;5009303;28;20056;-77
2023/01/04 01:16:39;;;;;;;6.18;2.10;;;8.50;85.70;;;;;;5025712;28;20344;-79
2023/01/04 01:19:06;;;;;;;6.82;2.30;;;8.50;86.00;;;;;;5037189;28;20470;-77
2023/01/04 01:21:33;;;;;;;5.47;1.67;;;8.50;86.00;;;;;;5038416;28;20515;-78
2023/01/04 01:24:01;;;;;;;7.20;2.08;;;8.50;86.20;;;;;;5040904;28;20045;-78
2023/01/04 01:26:28;;;;;;;5.73;1.33;;;8.60;86.30;;;;;;5046321;28;20046;-79
2023/01/04 01:28:56;;;;;;;8.60;2.30;;;8.60;86.40;;;;;;5043671;28;20756;-79
2023/01/04 01:31:24;;;;;;;8.23;2.20;;;8.60;86.50;;;;;;5027614;28;20554;-78
2023/01/04 01:33:54;;;;;;;7.45;2.50;;;8.60;86.70;;;;;;5026030;28;20046;-77
2023/01/04 01:36:24;;;;;;;6.68;2.05;;;8.60;86.80;;;;;;5037794;28;20045;-77
2023/01/04 01:38:51;;;;;;;6.97;2.57;;;8.60;86.80;;;;;;5038679;28;20484;-78
2023/01/04 01:41:21;;;;;;;7.25;1.90;;;8.60;87.10;;;;;;5039347;28;20265;-78
2023/01/04 01:43:52;;;;;;;7.22;1.67;;;8.60;87.20;;;;;;5039813;28;20045;-78
2023/01/04 01:46:25;;;;;;;8.38;2.30;;;8.60;87.40;;;;;;5049044;28;20136;-78
2023/01/04 01:48:54;;;;;;;5.43;1.70;;;8.60;87.50;;;;;;5046965;28;20049;-77
2023/01/04 01:51:21;;;;;;;5.73;1.80;;;8.60;87.50;;;;;;5036332;28;20056;-79
2023/01/04 01:53:54;;;;;;;5.68;2.40;;;8.50;87.80;;;;;;5033887;28;20288;-78
2023/01/04 01:56:23;;;;;;;5.70;2.00;;;8.50;88.00;;;;;;5040307;28;20069;-78
2023/01/04 01:58:54;;;;;;;6.60;1.88;;;8.50;88.20;;;;;;5043568;28;20050;-79
2023/01/04 02:01:22;;;;;;;7.20;2.20;;;8.60;88.30;;;;;;5046348;28;20153;-78
2023/01/04 02:03:49;;;;;;;6.03;1.87;;;8.50;88.60;;;;;;5017990;28;20491;-78
2023/01/04 02:06:22;;;;;;;4.90;1.88;;;8.60;88.70;;;;;;5040643;28;20253;-78
2023/01/04 02:08:49;;;;;;;4.70;1.55;;;8.60;89.00;;;;;;5012401;28;20065;-80
2023/01/04 02:11:17;;;;;;;4.18;1.45;;;8.60;89.00;;;;;;5029263;28;20073;-79
2023/01/04 02:16:51;;;;;;;4.67;1.60;;;8.60;89.20;;;;;;5033137;28;20065;-78
2023/01/04 02:19:36;;;;;;;5.22;1.88;;;8.60;89.50;;;;;;5040326;28;20825;-79
2023/01/04 02:22:37;;;;;;;4.57;1.40;;;8.60;89.50;;;;;;5035324;28;20060;-78
2023/01/04 02:25:38;;;;;;;4.65;1.45;;;8.60;89.70;;;;;;5029050;28;20101;-77
2023/01/04 02:28:12;;;;;;;3.90;1.10;;;8.60;89.70;;;;;;5011178;28;20052;-77
2023/01/04 02:31:13;;;;;;;5.37;1.50;;;8.60;89.80;;;;;;5037813;28;20200;-78
2023/01/04 02:33:47;;;;;;;4.20;1.40;;;8.60;89.90;;;;;;5042435;28;20353;-79
2023/01/04 02:36:22;;;;;;;4.47;1.58;;;8.60;90.20;;;;;;5037559;28;20077;-78
2023/01/04 02:39:03;;;;;;;5.47;1.60;;;8.60;90.20;;;;;;5020324;28;20990;-77
2023/01/04 02:41:34;;;;;;;4.82;1.85;;;8.60;90.30;;;;;;5036441;28;20581;-77
2023/01/04 02:47:02;;;;;;;4.30;1.27;;;8.70;90.40;;;;;;5032877;28;20288;-76
2023/01/04 02:52:14;;;;;;;4.75;1.50;;;8.70;90.50;;;;;;5043065;28;20046;-77
2023/01/04 02:54:43;;;;;;;5.30;1.38;;;8.70;90.70;;;;;;5009062;28;20046;-77
2023/01/04 02:57:24;;;;;;;4.00;1.10;;;8.80;90.80;;;;;;5032925;28;20172;-77
2023/01/04 03:00:15;;;;;;;3.80;1.35;;;8.80;90.80;;;;;;5033794;28;20523;-77
2023/01/04 03:06:16;;;;;;;3.33;1.00;;;8.90;90.90;;;;;;5028385;28;20141;-77
2023/01/04 03:08:57;;;;;;;4.45;1.20;;;9.00;91.00;;;;;;5028526;28;21008;-77
2023/01/04 03:14:20;;;;;;;3.28;1.30;;;9.00;91.20;;;;;;5034133;28;20278;-77
2023/01/04 03:16:49;;;;;;;4.03;1.30;;;9.00;91.40;;;;;;5034470;28;20482;-77
2023/01/04 03:19:50;;;;;;;3.70;1.17;;;9.00;91.40;;;;;;5045301;28;20081;-77
2023/01/04 03:36:18;;;;;;;4.40;1.45;;;9.20;92.30;;;;;;5025441;28;20197;-76
2023/01/04 03:50:14;;;;;;;3.75;1.60;;;9.50;92.50;;;;;;5035726;28;20073;-76
2023/01/04 03:52:46;;;;;;;3.87;1.30;;;9.60;92.50;;;;;;5024593;28;20128;-77
2023/01/04 03:55:15;;;;;;;5.40;1.60;;;9.60;92.60;;;;;;5031038;28;20253;-77
2023/01/04 03:57:42;;;;;;;3.53;1.33;;;9.60;92.70;;;;;;5050464;28;20061;-76
2023/01/04 04:00:12;;;;;;;3.47;1.20;;;9.60;92.60;;;;;;5027729;28;20050;-77
2023/01/04 04:02:41;;;;;;;3.28;1.30;;;9.70;92.70;;;;;;5029405;28;20128;-77
2023/01/04 04:10:43;;;;;;;3.30;1.13;;;9.80;92.70;;;;;;5046524;28;20688;-77
2023/01/04 04:13:10;;;;;;;3.35;1.00;;;9.80;92.60;;;;;;5032313;28;20771;-77
2023/01/04 04:15:38;;;;;;;3.20;1.30;;;9.80;92.60;;;;;;5027355;28;20052;-76
2023/01/04 04:18:06;;;;;;;2.97;1.30;;;9.90;92.70;;;;;;5027208;28;20058;-77
2023/01/04 04:20:33;;;;;;;3.97;1.55;;;9.90;92.60;;;;;;5027556;28;20339;-76
2023/01/04 04:23:02;;;;;;;3.65;1.30;;;10.00;92.60;;;;;;5042657;28;20050;-76
2023/01/04 04:25:59;;;;;;;4.18;1.90;;;10.00;92.60;;;;;;5037393;28;20054;-76
2023/01/04 04:28:26;;;;;;;4.53;1.80;;;10.00;92.70;;;;;;5040209;28;20049;-78
2023/01/04 04:30:53;;;;;;;3.50;1.47;;;10.10;92.60;;;;;;5029534;28;20085;-76
2023/01/04 04:33:20;;;;;;;4.13;1.88;;;10.10;92.50;;;;;;5038006;28;20352;-77
2023/01/04 04:35:51;;;;;;;3.50;1.55;;;10.20;92.60;;;;;;5034539;28;20050;-77
2023/01/04 04:38:20;;;;;;;4.25;1.75;;;10.20;92.50;;;;;;5037973;28;20057;-76
2023/01/04 04:43:44;;;;;;;3.67;2.07;;;10.30;92.50;;;;;;5008533;28;20053;-77
2023/01/04 04:46:11;;;;;;;3.67;2.00;;;10.30;92.40;;;;;;5032662;28;20308;-76
2023/01/04 04:48:38;;;;;;;3.88;2.00;;;10.40;92.20;;;;;;5034566;28;20050;-77
2023/01/04 04:51:06;;;;;;;4.13;1.95;;;10.40;92.10;;;;;;5026260;28;20140;-76
2023/01/04 04:53:34;;;;;;;4.03;2.35;;;10.40;92.20;;;;;;5026406;28;20054;-76
2023/01/04 04:56:01;;;;;;;4.53;2.37;;;10.40;92.20;;;;;;5025184;28;20056;-76
2023/01/04 04:58:28;;;;;;;5.72;2.42;;;10.50;92.20;;;;;;5033530;28;20292;-77
2023/01/04 05:00:55;;;;;;;4.93;2.78;;;10.50;92.20;;;;;;5022972;28;20119;-76
2023/01/04 05:03:22;;;;;;;4.80;2.80;;;10.50;92.30;;;;;;5035875;28;20401;-76
2023/01/04 05:05:49;;;;;;;4.68;2.10;;;10.50;92.30;;;;;;5037530;28;20065;-76
2023/01/04 05:08:17;;;;;;;4.67;2.80;;;10.50;92.40;;;;;;5036026;28;20045;-77
2023/01/04 05:10:45;;;;;;;4.47;2.90;;;10.60;92.40;;;;;;5044226;28;20350;-77
2023/01/04 05:13:12;;;;;;;4.85;2.10;;;10.70;92.30;;;;;;5039206;28;20208;-75
2023/01/04 05:15:41;;;;;;;4.88;3.20;;;10.70;92.10;;;;;;5053853;28;20061;-76
2023/01/04 05:18:10;;;;;;;4.50;2.38;;;10.70;92.00;;;;;;5039980;28;20054;-76
2023/01/04 05:20:38;;;;;;;5.10;2.80;;;10.70;92.00;;;;;;5031813;28;20938;-75
2023/01/04 05:23:06;;;;;;;6.07;2.85;;;10.80;92.00;;;;;;5034188;28;20297;-76
2023/01/04 05:25:33;;;;;;;5.47;3.20;;;10.70;92.10;;;;;;5044299;28;20098;-77
2023/01/04 05:28:02;;;;;;;5.63;3.65;;;10.70;92.20;;;;;;5027151;28;20137;-76
2023/01/04 05:33:13;;;;;;;6.03;3.30;;;10.80;92.20;;;;;;5047075;28;20507;-77
2023/01/04 05:35:40;;;;;;;4.53;2.58;;;10.80;92.20;;;;;;5034684;28;20716;-76
2023/01/04 05:38:07;;;;;;;5.10;2.95;;;10.80;92.30;;;;;;5042884;28;20133;-76
2023/01/04 05:40:34;;;;;;;6.43;3.58;;;10.90;92.30;;;;;;5034077;28;20132;-78
2023/01/04 05:43:03;;;;;;;6.88;3.50;;;10.90;92.40;;;;;;5037909;28;20050;-76
2023/01/04 05:45:30;;;;;;;5.70;3.23;;;10.90;92.50;;;;;;5042896;28;20156;-78
2023/01/04 05:47:57;;;;;;;5.80;3.70;;;10.90;92.40;;;;;;5045768;28;20339;-77
2023/01/04 05:50:24;;;;;;;6.32;3.80;;;10.90;92.50;;;;;;5053979;28;20053;-76
2023/01/04 05:52:52;;;;;;;6.30;3.72;;;11.00;92.50;;;;;;5052570;28;20050;-77
2023/01/04 05:55:20;;;;;;;6.45;3.72;;;11.00;92.40;;;;;;5050545;28;20049;-76
2023/01/04 05:57:47;;;;;;;5.90;4.20;;;11.00;92.20;;;;;;5037077;28;20064;-76
2023/01/04 06:00:16;;;;;;;6.38;3.70;;;11.00;92.30;;;;;;5027144;28;20278;-77
2023/01/04 06:02:44;;;;;;;6.38;3.95;;;11.10;92.10;;;;;;5031359;28;20056;-76
2023/01/04 06:05:12;;;;;;;6.63;3.78;;;11.10;92.10;;;;;;5041833;28;20095;-76
2023/01/04 06:07:40;;;;;;;6.15;3.60;;;11.10;92.20;;;;;;5049278;28;20558;-77
2023/01/04 06:10:09;;;;;;;7.83;3.40;;;11.10;92.00;;;;;;5049389;28;20049;-77
2023/01/04 06:12:36;;;;;;;6.18;3.30;;;11.10;91.90;;;;;;5036137;28;20279;-77
2023/01/04 06:15:04;;;;;;;5.43;3.20;;;11.20;91.80;;;;;;5037516;28;20046;-76
2023/01/04 06:17:33;;;;;;;7.80;2.80;;;11.30;91.70;;;;;;5032088;28;20138;-77
2023/01/04 06:20:00;;;;;;;6.13;3.10;;;11.20;91.70;;;;;;5043160;28;20865;-76
2023/01/04 06:22:28;;;;;;;4.87;2.73;;;11.20;91.80;;;;;;5042552;28;20156;-77
2023/01/04 06:24:55;;;;;;;6.53;2.72;;;11.30;91.60;;;;;;5036602;28;20754;-77
2023/01/04 06:27:23;;;;;;;5.97;2.55;;;11.30;91.60;;;;;;5035186;28;20042;-77
2023/01/04 06:29:50;;;;;;;4.80;2.30;;;11.30;91.60;;;;;;5039226;28;20052;-77
2023/01/04 06:32:17;;;;;;;5.20;2.53;;;11.40;91.60;;;;;;5044083;28;20050;-77
2023/01/04 06:34:45;;;;;;;5.23;2.27;;;11.40;91.60;;;;;;5037136;28;20393;-77
2023/01/04 06:37:12;;;;;;;4.25;1.90;;;11.40;91.70;;;;;;5037424;28;20261;-78
2023/01/04 06:39:39;;;;;;;3.80;1.88;;;11.40;91.70;;;;;;5023155;28;20129;-77
2023/01/04 06:42:43;;;;;;;3.92;1.90;;;11.30;91.80;;;;;;5039922;28;20050;-78
2023/01/04 06:44:55;;;;;;;3.63;1.75;;;11.40;91.70;;;;;;5033317;28;20752;-78
2023/01/04 06:47:22;;;;;;;4.47;1.70;;;11.40;91.70;;;;;;5039046;28;20057;-77
2023/01/04 06:49:50;;;;;;;4.03;1.63;;;11.50;91.60;;;;;;5040474;28;20267;-77
2023/01/04 06:52:18;;;;;;;3.10;1.13;;;11.40;91.50;;;;;;5040000;28;20045;-78
2023/01/04 06:54:45;;;;;;;3.65;1.40;;;11.40;91.60;;;;;;5040133;28;20059;-79
2023/01/04 06:57:12;;;;;;;3.20;1.30;;;11.40;91.60;;;;;;5032984;28;20157;-78
2023/01/04 06:59:39;;;;;;;3.23;1.20;;;11.40;91.50;;;;;;5041511;28;20054;-78
2023/01/04 07:02:06;;;;;;;3.45;1.38;;;11.50;91.50;;;;;;5048402;28;20287;-79
2023/01/04 07:04:33;;;;;;;3.10;1.20;;;11.50;91.50;;;;;;5029936;28;20049;-78
2023/01/04 07:07:02;;;;;;;2.97;1.30;;;11.50;91.10;;;;;;5035893;28;20129;-78
2023/01/04 07:09:29;;;;;;;3.33;1.30;;;11.50;91.10;;;;;;5044254;28;20077;-79
2023/01/04 07:11:57;;;;;;;2.97;1.30;;;11.50;91.10;;;;;;5033574;28;20133;-79
2023/01/04 07:14:24;;;;;;;3.38;1.13;;;11.50;91.10;;;;;;5031026;28;20307;-78
2023/01/04 07:16:51;;;;;;;3.45;1.20;;;11.50;91.10;;;;;;5031327;28;20077;-79
2023/01/04 07:19:18;;;;;;;3.45;1.25;;;11.50;91.20;;;;;;5045362;28;20077;-79
2023/01/04 07:21:45;;;;;;;3.38;1.13;;;11.50;91.10;;;;;;5028453;28;20089;-79
2023/01/04 07:24:14;;;;;;;3.17;1.00;;;11.50;91.00;;;;;;5027855;28;20129;-81
2023/01/04 07:26:41;;;;;;;4.32;1.42;;;11.50;91.00;;;;;;5029877;28;20348;-79
2023/01/04 07:29:15;;;;;;;3.22;1.20;;;11.50;91.10;;;;;;5044019;28;20128;-79
2023/01/04 07:31:44;;;;;;;3.65;1.25;;;11.50;91.10;;;;;;5044973;28;20054;-79
2023/01/04 07:34:12;;;;;;;3.47;1.30;;;11.50;91.20;;;;;;5038870;28;20137;-80
2023/01/04 07:36:39;;;;;;;4.03;1.50;;;11.50;91.30;;;;;;5047082;28;20046;-79
2023/01/04 07:39:08;;;;;;;4.18;1.45;;;11.50;91.40;;;;;;5031283;28;20253;-79
2023/01/04 07:41:37;;;;;;;3.13;1.40;;;11.50;91.40;;;;;;5043006;28;21045;-80
2023/01/04 07:44:06;;;;;;;3.42;1.40;;;11.50;91.40;;;;;;5027246;28;20050;-79
2023/01/04 07:46:34;;;;;;;3.17;1.27;;;11.50;91.20;;;;;;5029437;28;20133;-79
2023/01/04 07:49:02;;;;;;;3.50;1.40;;;11.50;91.30;;;;;;5027227;28;20050;-80
2023/01/04 07:51:30;;;;;;;3.80;1.27;;;11.50;91.30;;;;;;5031336;28;20281;-79
2023/01/04 07:53:57;;;;;;;4.38;1.80;;;11.50;91.50;;;;;;5026647;28;20056;-79
2023/01/04 07:56:24;;;;;;;4.25;1.95;;;11.50;91.50;;;;;;5029976;28;20046;-79
2023/01/04 07:58:55;;;;;;;3.72;1.50;;;11.50;91.60;;;;;;5026607;28;20136;-79
2023/01/04 08:01:23;;;;;;;5.03;1.73;;;11.50;91.70;;;;;;5025890;28;20057;-78
2023/01/04 08:03:50;;;;;;;4.75;1.85;;;11.50;91.80;;;;;;4949902;28;20261;-79
2023/01/04 08:06:20;;;;;;;4.88;2.25;;;11.50;91.80;;;;;;5031361;28;20050;-78
2023/01/04 08:08:47;;;;;;;4.38;2.20;;;11.50;91.70;;;;;;5025355;28;21150;-78
2023/01/04 08:11:16;;;;;;;5.22;2.53;;;11.50;91.70;;;;;;5014748;28;20054;-78
2023/01/04 08:13:44;;;;;;;5.20;2.33;;;11.50;91.70;;;;;;5031513;28;20079;-78
2023/01/04 08:16:19;;;;;;;4.25;2.20;;;11.50;91.60;;;;;;5029871;28;20440;-79
2023/01/04 08:18:47;;;;;;;4.82;2.10;;;11.50;91.70;;;;;;5027602;28;20783;-78
2023/01/04 08:21:14;;;;;;;5.05;2.90;;;11.50;91.40;;;;;;5027283;28;20054;-78
2023/01/04 08:23:41;;;;;;;5.53;2.67;;;11.60;91.40;;;;;;5028219;28;20136;-78
2023/01/04 08:26:10;;;;;;;5.80;3.00;;;11.60;91.30;;;;;;5029219;28;20053;-78
2023/01/04 08:28:37;;;;;;;5.43;2.60;;;11.50;91.40;;;;;;5026595;28;20265;-77
2023/01/04 08:31:06;;;;;;;5.07;2.60;;;11.70;91.20;;;;;;5030639;28;20116;-77
2023/01/04 08:33:36;;;;;;;5.28;2.53;;;11.70;91.20;;;;;;5042348;28;20058;-77
2023/01/04 08:36:11;;;;;;;5.47;2.60;;;11.70;91.30;;;;;;5027154;28;20100;-78
2023/01/04 08:38:39;;;;;;;5.57;2.53;;;11.60;91.40;;;;;;5023560;28;20530;-76
2023/01/04 08:41:06;;;;;;;5.40;1.85;;;11.70;91.60;;;;;;5032813;28;20289;-76
2023/01/04 08:43:34;;;;;;;4.55;2.00;;;11.70;91.50;;;;;;5037494;28;20089;-76
2023/01/04 08:46:01;;;;;;;4.57;2.55;;;11.70;91.70;;;;;;5027481;28;20547;-76
2023/01/04 08:48:29;;;;;;;3.83;2.10;;;11.70;91.60;;;;;;5025524;28;20141;-77
2023/01/04 08:51:02;;;;;;;3.13;1.27;;;11.70;91.50;;;;;;5025529;28;20046;-79
2023/01/04 08:53:29;;;;;;;4.88;1.63;;;11.70;91.40;;;;;;5025937;28;20401;-80
2023/01/04 08:55:58;;;;;;;3.75;1.83;;;11.70;91.40;;;;;;5029296;28;20054;-81
2023/01/04 08:58:25;;;;;;;3.85;1.85;;;11.70;91.50;;;;;;5011604;28;20595;-79
2023/01/04 09:00:52;;;;;;;3.42;1.45;;;11.70;91.50;;;;;;5026244;28;20538;-80
2023/01/04 09:03:19;;;;;;;4.40;1.60;;;11.70;91.40;;;;;;5028287;28;20505;-79
2023/01/04 09:05:46;;;;;;;3.70;1.55;;;11.70;91.60;;;;;;5028855;28;20253;-79
2023/01/04 09:08:15;;;;;;;3.25;1.30;;;11.70;91.60;;;;;;5028693;28;20991;-79
2023/01/04 09:10:42;;;;;;;3.88;1.60;;;11.70;91.50;;;;;;5025063;28;20051;-78
2023/01/04 09:13:09;;;;;;;3.88;1.60;;;11.70;91.70;;;;;;5026884;28;20167;-80
2023/01/04 09:15:36;;;;;;;4.07;1.47;;;11.70;91.80;;;;;;5031211;28;20124;-80
2023/01/04 09:18:04;;;;;;;2.92;1.40;;;11.70;91.60;;;;;;5032811;28;21191;-80
2023/01/04 09:20:31;;;;;;;2.95;1.05;;;11.70;91.70;;;;;;5032896;28;20054;-79
2023/01/04 09:22:58;;;;;;;2.95;1.08;;;11.70;91.60;;;;;;5039306;28;20988;-81
2023/01/04 09:25:27;;;;;;;3.30;0.95;;;11.70;91.70;;;;;;5045597;28;20207;-78
2023/01/04 09:27:54;;;;;;;3.63;0.90;;;11.70;91.80;;;;;;5008662;28;20038;-80
2023/01/04 09:30:21;;;;;;;2.80;0.90;;;11.70;91.90;;;;;;5053788;28;20361;-82
2023/01/04 09:32:48;;;;;;;2.72;0.70;;;11.70;91.80;;;;;;5031694;28;20144;-80
2023/01/04 09:35:15;;;;;;;2.88;0.93;;;11.70;91.80;;;;;;5038906;28;20053;-78
2023/01/04 09:37:42;;;;;;;2.80;0.82;;;11.70;92.00;;;;;;5026196;28;20049;-79
2023/01/04 09:40:20;;;;;;;2.47;0.80;;;11.70;92.20;;;;;;5034343;28;20140;-79
2023/01/04 09:42:50;;;;;;;3.70;0.88;;;11.70;92.00;;;;;;5006588;28;20358;-80
2023/01/04 09:45:20;;;;;;;2.75;0.70;;;11.70;91.90;;;;;;5003836;28;20046;-78
2023/01/04 09:47:51;;;;;;;2.42;0.70;;;11.70;91.80;;;;;;5024858;28;20538;-79
2023/01/04 09:50:22;;;;;;;3.75;0.90;;;11.70;91.80;;;;;;5025581;28;20169;-81
2023/01/04 09:52:57;;;;;;;2.70;0.60;;;11.70;91.80;;;;;;5025678;28;20137;-80
2023/01/04 09:55:29;;;;;;;1.98;0.40;;;11.70;92.00;;;;;;5006675;28;20290;-80
2023/01/04 09:58:02;;;;;;;3.75;0.80;;;11.70;92.00;;;;;;5024683;28;20100;-81
2023/01/04 10:00:34;;;;;;;2.38;0.55;;;11.70;92.10;;;;;;5024605;28;20050;-80
2023/01/04 10:03:07;;;;;;;2.00;0.50;;;11.70;92.00;;;;;;5033308;28;20807;-80
2023/01/04 10:05:43;;;;;;;2.50;0.40;;;11.70;92.10;;;;;;5031395;28;20132;-81
2023/01/04 10:08:16;;;;;;;2.10;0.40;;;11.70;92.20;;;;;;5049058;28;20358;-79
2023/01/04 10:11:00;;;;;;;1.83;0.30;;;11.70;92.20;;;;;;5018929;28;20061;-81
2023/01/04 10:13:48;;;;;;;2.50;0.50;;;11.70;92.20;;;;;;5030446;28;20085;-79
2023/01/04 10:16:25;;;;;;;2.58;0.40;;;11.70;92.30;;;;;;5019240;28;20082;-79
2023/01/04 10:18:58;;;;;;;2.93;0.60;;;11.70;92.40;;;;;;5036146;28;20610;-80
2023/01/04 10:21:37;;;;;;;4.25;0.90;;;11.70;92.50;;;;;;5024920;28;20365;-81
2023/01/04 10:24:31;;;;;;;4.97;0.90;;;11.80;92.40;;;;;;5043601;28;20579;-80
2023/01/04 10:27:04;;;;;;;6.50;1.00;;;11.80;92.30;;;;;;5036238;28;20061;-81
2023/01/04 10:29:43;;;;;;;5.03;1.00;;;11.90;92.30;;;;;;5031617;28;20077;-82
2023/01/04 10:32:19;;;;;;;4.93;0.70;;;11.90;92.30;;;;;;5029773;28;20480;-81
2023/01/04 10:34:47;;;;;;;4.60;1.00;;;11.90;92.20;;;;;;5030869;28;20629;-80
2023/01/04 10:37:19;;;;;;;7.97;1.25;;;11.90;92.20;;;;;;5035471;28;20148;-79
2023/01/04 10:39:50;;;;;;;6.97;1.33;;;11.90;92.10;;;;;;5026424;28;20054;-80
2023/01/04 10:42:21;;;;;;;7.65;1.55;;;11.90;92.10;;;;;;5012182;28;20152;-82
2023/01/04 10:45:01;;;;;;;11.37;1.93;;;12.00;92.10;;;;;;5028226;28;20097;-80
2023/01/04 10:47:35;;;;;;;9.80;1.90;;;12.00;91.90;;;;;;5040261;28;20257;-76
2023/01/04 10:50:09;;;;;;;9.80;1.80;;;12.10;91.60;;;;;;5029725;28;20528;-78
2023/01/04 10:52:42;;;;;;;7.78;1.45;;;12.10;91.50;;;;;;5012798;28;20507;-78
2023/01/04 10:55:14;;;;;;;11.77;2.08;;;12.20;91.30;;;;;;5023392;28;20093;-78
2023/01/04 10:57:46;;;;;;;13.77;1.50;;;12.20;91.10;;;;;;5027420;28;20056;-78
2023/01/04 11:00:19;;;;;;;11.15;2.08;;;12.20;91.20;;;;;;5039464;28;20679;-80
2023/01/04 11:02:51;;;;;;;9.77;1.92;;;12.20;91.10;;;;;;5033742;28;20174;-80
2023/01/04 11:05:50;;;;;;;4.65;0.90;;;12.20;90.80;;;;;;5040545;28;20216;-80
2023/01/04 11:08:21;;;;;;;13.68;2.10;;;12.20;90.80;;;;;;5022157;28;20060;-79
2023/01/04 11:10:53;;;;;;;14.63;1.87;;;12.20;90.70;;;;;;5030067;28;20508;-79
2023/01/04 11:13:20;;;;;;;13.85;2.30;;;12.30;90.30;;;;;;5026831;28;20369;-80
2023/01/04 11:15:48;;;;;;;10.20;1.77;;;12.30;90.40;;;;;;5028100;28;20050;-79
2023/01/04 11:18:17;;;;;;;12.45;2.28;;;12.40;90.10;;;;;;5027253;28;20105;-79
2023/01/04 11:20:44;;;;;;;11.30;1.55;;;12.50;89.90;;;;;;5027906;28;20045;-80
2023/01/04 11:23:14;;;;;;;9.10;1.63;;;12.40;89.80;;;;;;5036750;28;20464;-79
2023/01/04 11:25:47;;;;;;;12.57;1.92;;;12.40;89.90;;;;;;5034101;28;20263;-79
2023/01/04 11:28:17;;;;;;;12.65;1.90;;;12.50;89.80;;;;;;5033376;28;20049;-79
2023/01/04 11:31:16;;;;;;;11.60;2.03;;;12.50;89.90;;;;;;5030010;28;20097;-80
2023/01/04 11:33:55;;;;;;;9.07;1.33;;;12.50;89.60;;;;;;5038738;28;20053;-80
2023/01/04 11:36:36;;;;;;;13.63;1.77;;;12.50;89.60;;;;;;5022843;28;20058;-79
2023/01/04 11:39:04;;;;;;;9.50;1.67;;;12.50;89.60;;;;;;5030953;28;20348;-79
2023/01/04 11:41:32;;;;;;;8.35;1.58;;;12.50;89.20;;;;;;5036779;28;20053;-79
2023/01/04 11:44:00;;;;;;;8.25;1.17;;;12.50;89.00;;;;;;5018141;28;20045;-80
2023/01/04 11:46:30;;;;;;;11.18;1.63;;;12.50;89.00;;;;;;5035309;28;20050;-81
2023/01/04 11:48:58;;;;;;;8.40;0.80;;;12.50;89.10;;;;;;5032150;28;20124;-81
2023/01/04 11:51:43;;;;;;;8.27;1.40;;;12.50;89.20;;;;;;5028429;28;20253;-79
2023/01/04 11:54:20;;;;;;;10.18;1.63;;;12.60;89.00;;;;;;5022961;28;20118;-80
2023/01/04 11:57:02;;;;;;;8.57;1.55;;;12.60;88.70;;;;;;5022437;28;20674;-82
2023/01/04 11:59:29;;;;;;;10.45;1.40;;;12.70;88.40;;;;;;5012669;28;20045;-81
2023/01/04 12:02:23;;;;;;;8.63;1.30;;;12.70;88.40;;;;;;5026979;28;20062;-80
2023/01/04 12:04:52;;;;;;;8.80;1.42;;;12.70;88.50;;;;;;5025281;28;20357;-79
2023/01/04 12:07:28;;;;;;;7.68;1.15;;;12.70;88.50;;;;;;5032583;28;20077;-80
2023/01/04 12:09:56;;;;;;;7.35;1.17;;;12.60;88.60;;;;;;5019910;28;20101;-81
2023/01/04 12:12:29;;;;;;;7.25;1.20;;;12.60;88.70;;;;;;5024994;28;20058;-77
2023/01/04 12:15:00;;;;;;;6.93;1.20;;;12.70;88.40;;;;;;5029411;28;20134;-81
2023/01/04 12:17:41;;;;;;;7.50;1.20;;;12.70;88.00;;;;;;5025569;28;20262;-78
2023/01/04 12:20:15;;;;;;;6.85;0.82;;;12.70;88.10;;;;;;5020926;28;20061;-80
2023/01/04 12:22:42;;;;;;;9.77;1.08;;;12.70;88.00;;;;;;5024680;28;20048;-79
2023/01/04 12:25:30;;;;;;;8.55;1.23;;;12.70;88.00;;;;;;5023876;28;20081;-81
2023/01/04 12:27:58;;;;;;;6.03;0.83;;;12.70;87.80;;;;;;5024052;28;20213;-82
2023/01/04 12:30:37;;;;;;;4.70;0.70;;;12.70;87.50;;;;;;5045069;28;20340;-79
2023/01/04 12:33:40;;;;;;;4.85;0.52;;;12.70;87.30;;;;;;5032657;28;20050;-79
2023/01/04 12:36:10;;;;;;;5.35;0.70;;;12.80;86.80;;;;;;5017105;28;20465;-80
2023/01/04 12:39:02;;;;;;;3.50;0.50;;;12.80;86.70;;;;;;5041451;22;20056;-80
2023/01/04 12:42:16;;;;;;;4.93;0.60;;;12.80;87.00;;;;;;5027742;28;20057;-79
2023/01/04 12:45:20;;;;;;;3.95;0.55;;;12.80;86.60;;;;;;5023980;28;20303;-81
2023/01/04 12:51:23;;;;;;;4.03;0.45;;;12.80;86.40;;;;;;5032134;28;20118;-81
2023/01/04 12:53:57;;;;;;;5.32;0.52;;;12.70;86.60;;;;;;4986113;28;21087;-81
2023/01/04 12:57:22;;;;;;;5.20;0.93;;;12.70;86.40;;;;;;5021346;28;20128;-80
2023/01/04 13:00:00;;;;;;;7.43;1.23;;;12.70;86.30;;;;;;5022946;28;20323;-83
2023/01/04 13:02:28;;;;;;;5.90;1.40;;;12.70;85.60;;;;;;5027374;28;20764;-83
2023/01/04 13:04:57;;;;;;;7.57;0.90;;;12.80;85.40;;;;;;5026745;28;20050;-85
2023/01/04 13:07:30;;;;;;;9.07;1.10;;;12.70;85.50;;;;;;5009249;28;20140;-85
2023/01/04 13:10:01;;;;;;;7.70;1.20;;;12.70;85.50;;;;;;5026626;28;20073;-82
2023/01/04 13:12:59;;;;;;;6.75;1.02;;;12.70;85.20;;;;;;5030251;28;20336;-85
2023/01/04 13:15:41;;;;;;;7.85;1.40;;;12.70;85.40;;;;;;5024022;28;20120;-83
2023/01/04 13:18:35;;;;;;;11.75;2.00;;;12.70;85.20;;;;;;5024283;28;20054;-86
2023/01/04 13:21:09;;;;;;;7.82;1.60;;;12.70;85.10;;;;;;5006682;28;20148;-85
2023/01/04 13:23:37;;;;;;;8.43;1.47;;;12.70;85.20;;;;;;5012050;28;20419;-82
2023/01/04 13:26:33;;;;;;;14.32;2.22;;;12.70;85.10;;;;;;5026645;28;20753;-81
2023/01/04 13:29:12;;;;;;;10.63;1.52;;;12.70;84.70;;;;;;5026619;28;20047;-82
2023/01/04 13:31:48;;;;;;;11.82;1.95;;;12.60;84.70;;;;;;5017847;28;20620;-82
2023/01/04 13:34:18;;;;;;;11.18;1.55;;;12.60;84.90;;;;;;5032317;28;20050;-84
2023/01/04 13:37:05;;;;;;;10.93;1.93;;;12.50;84.90;;;;;;5036921;28;20062;-81
2023/01/04 13:39:33;;;;;;;6.78;1.67;;;12.50;84.80;;;;;;5039133;28;20269;-82
2023/01/04 13:42:02;;;;;;;11.43;2.28;;;12.50;84.80;;;;;;5030083;28;20053;-82
2023/01/04 13:45:01;;;;;;;9.10;1.90;;;12.50;84.90;;;;;;5029553;28;20058;-85
2023/01/04 13:47:30;;;;;;;11.70;1.75;;;12.50;84.80;;;;;;5037599;28;20212;-81
2023/01/04 13:49:58;;;;;;;12.87;2.10;;;12.50;84.70;;;;;;5015135;28;20082;-82
2023/01/04 13:52:26;;;;;;;12.77;2.10;;;12.50;84.60;;;;;;5011689;28;20290;-85
2023/01/04 13:55:12;;;;;;;10.63;2.20;;;12.50;84.60;;;;;;5004301;28;20527;-82
2023/01/04 13:57:51;;;;;;;11.43;1.95;;;12.50;84.70;;;;;;5021652;28;20061;-83
2023/01/04 14:00:19;;;;;;;8.85;1.80;;;12.50;84.70;;;;;;5028849;28;20058;-82
2023/01/04 14:02:46;;;;;;;13.83;2.43;;;12.50;84.90;;;;;;5029192;28;20123;-82
2023/01/04 14:05:17;;;;;;;11.48;2.10;;;12.50;84.80;;;;;;5016801;28;20288;-84